Time;durP1;ratioP1;P1;durP2;ratioP2;P2;SDS_P1;SDS_P2;PMS_P1;PMS_P2;Temp;Humidity;BMP_temperature;BMP_pressure;BME280_temperature;BME280_humidity;BME280_pressure;Samples;Min_cycle;Max_cycle;Signal;HPM_P1;HPM_P2
2022/11/07 00:00:49;;;;;;;7.40;2.47;;;;;;;;;;5030662;28;20056;-64
2022/11/07 00:03:19;;;;;;;9.30;2.75;;;;;;;;;;4997915;28;20061;-63
2022/11/07 00:05:50;;;;;;;12.23;2.75;;;;;;;;;;5039667;28;20575;-63
2022/11/07 00:08:30;;;;;;;7.75;2.88;;;;;;;;;;5050609;28;20053;-64
2022/11/07 00:11:01;;;;;;;7.53;2.58;;;;;;;;;;5050623;28;20049;-63
2022/11/07 00:13:32;;;;;;;8.25;2.67;;;;;;;;;;5033745;28;20382;-63
2022/11/07 00:16:05;;;;;;;9.73;2.67;;;;;;;;;;5050356;28;20052;-63
2022/11/07 00:18:36;;;;;;;10.35;3.28;;;;;;;;;;5057456;28;20045;-64
2022/11/07 00:21:08;;;;;;;13.40;2.92;;;;;;;;;;5123371;27;20052;-64
2022/11/07 00:23:42;;;;;;;8.57;2.17;;;;;;;;;;5133863;27;20043;-63
2022/11/07 00:26:14;;;;;;;7.28;2.38;;;;;;;;;;5133762;27;20043;-64
2022/11/07 00:28:45;;;;;;;3.33;1.20;;;;;;;;;;5133602;27;20394;-63
2022/11/07 00:31:16;;;;;;;1.60;0.77;;;;;;;;;;5133677;27;20043;-63
2022/11/07 00:33:47;;;;;;;6.32;0.95;;;;;;;;;;5097425;27;20388;-63
2022/11/07 00:36:19;;;;;;;1.45;0.50;;;;;;;;;;5133669;27;20047;-64
2022/11/07 00:38:50;;;;;;;2.22;0.75;;;;;;;;;;5133547;27;20035;-63
2022/11/07 00:41:22;;;;;;;1.42;0.80;;;;;;;;;;5089880;28;20403;-63
2022/11/07 00:43:52;;;;;;;1.27;0.60;;;;;;;;;;5089959;28;20084;-63
2022/11/07 00:46:23;;;;;;;2.95;0.70;;;;;;;;;;5089639;28;20044;-63
2022/11/07 00:48:53;;;;;;;1.10;0.57;;;;;;;;;;5049450;28;20052;-63
2022/11/07 00:51:26;;;;;;;1.73;0.80;;;;;;;;;;5049681;28;20075;-63
2022/11/07 00:53:57;;;;;;;1.75;0.63;;;;;;;;;;5049506;28;20795;-62
2022/11/07 00:56:28;;;;;;;0.70;0.70;;;;;;;;;;5032971;28;20065;-63
2022/11/07 00:59:00;;;;;;;1.98;0.55;;;;;;;;;;5016402;28;20643;-64
2022/11/07 01:01:32;;;;;;;1.52;0.43;;;;;;;;;;5029334;28;20049;-62
2022/11/07 01:06:50;;;;;;;1.45;0.55;;;;;;;;;;5029226;28;20053;-63
2022/11/07 01:09:21;;;;;;;2.15;0.68;;;;;;;;;;5013193;28;20136;-63
2022/11/07 01:11:52;;;;;;;1.92;0.68;;;;;;;;;;4938413;28;20047;-62
2022/11/07 01:14:22;;;;;;;3.95;0.60;;;;;;;;;;4970408;28;20577;-63
2022/11/07 01:16:52;;;;;;;5.78;0.80;;;;;;;;;;4954085;28;20061;-63
2022/11/07 01:19:22;;;;;;;2.10;0.82;;;;;;;;;;4970073;28;20077;-63
2022/11/07 01:21:53;;;;;;;2.42;0.80;;;;;;;;;;4935470;29;20051;-63
2022/11/07 01:24:23;;;;;;;2.28;0.90;;;;;;;;;;4950974;29;20066;-63
2022/11/07 01:26:53;;;;;;;2.42;0.70;;;;;;;;;;4970061;28;20403;-62
2022/11/07 01:29:23;;;;;;;2.40;1.00;;;;;;;;;;4970030;28;20058;-66
2022/11/07 01:31:54;;;;;;;4.20;0.90;;;;;;;;;;4970044;28;20070;-62
2022/11/07 01:34:24;;;;;;;1.88;0.88;;;;;;;;;;4970404;28;20055;-63
2022/11/07 01:36:54;;;;;;;1.95;1.13;;;;;;;;;;4954539;28;20063;-63
2022/11/07 01:39:24;;;;;;;3.13;0.73;;;;;;;;;;4982067;28;20062;-63
2022/11/07 01:41:54;;;;;;;5.63;1.25;;;;;;;;;;5000768;28;20057;-63
2022/11/07 01:44:24;;;;;;;1.50;0.57;;;;;;;;;;5009252;28;20057;-63
2022/11/07 01:46:58;;;;;;;3.38;1.33;;;;;;;;;;5009109;28;20085;-62
2022/11/07 01:49:35;;;;;;;2.83;0.70;;;;;;;;;;5018376;28;20061;-62
2022/11/07 01:52:33;;;;;;;2.33;0.88;;;;;;;;;;4989016;28;20047;-63
2022/11/07 01:55:14;;;;;;;5.60;1.00;;;;;;;;;;4989571;28;20499;-62
2022/11/07 01:58:01;;;;;;;2.67;0.70;;;;;;;;;;5004964;28;20422;-62
2022/11/07 02:00:32;;;;;;;1.70;0.60;;;;;;;;;;5009078;28;20614;-63
2022/11/07 02:03:09;;;;;;;1.55;0.80;;;;;;;;;;5009319;28;20054;-62
2022/11/07 02:05:54;;;;;;;2.58;0.70;;;;;;;;;;5046410;28;20436;-63
2022/11/07 02:08:27;;;;;;;1.83;0.60;;;;;;;;;;5015873;28;20213;-63
2022/11/07 02:10:59;;;;;;;4.57;1.15;;;;;;;;;;5048645;28;20056;-63
2022/11/07 02:13:31;;;;;;;2.42;0.73;;;;;;;;;;5048624;28;20052;-63
2022/11/07 02:16:04;;;;;;;2.67;1.15;;;;;;;;;;5048660;28;20057;-63
2022/11/07 02:18:36;;;;;;;2.70;0.90;;;;;;;;;;5048448;28;20578;-63
2022/11/07 02:21:30;;;;;;;1.45;0.52;;;;;;;;;;5048257;28;20412;-63
2022/11/07 02:24:35;;;;;;;3.92;0.70;;;;;;;;;;5048534;28;20417;-64
2022/11/07 02:27:13;;;;;;;2.40;1.00;;;;;;;;;;4969762;28;20050;-63
2022/11/07 02:29:47;;;;;;;3.05;0.70;;;;;;;;;;4989371;28;20187;-63
2022/11/07 02:32:17;;;;;;;2.25;0.93;;;;;;;;;;4989058;28;20065;-63
2022/11/07 02:35:02;;;;;;;2.13;0.80;;;;;;;;;;4989210;28;20419;-63
2022/11/07 02:37:38;;;;;;;3.95;0.73;;;;;;;;;;4988933;28;20054;-63
2022/11/07 02:40:09;;;;;;;2.75;0.70;;;;;;;;;;5008664;28;20450;-63
2022/11/07 02:42:42;;;;;;;4.25;0.90;;;;;;;;;;5011457;28;20050;-63
2022/11/07 02:45:17;;;;;;;2.40;0.80;;;;;;;;;;5012325;28;20061;-63
2022/11/07 02:47:48;;;;;;;2.25;1.08;;;;;;;;;;4941082;28;20043;-64
2022/11/07 02:50:18;;;;;;;2.67;0.60;;;;;;;;;;4992244;28;20050;-63
2022/11/07 02:52:48;;;;;;;1.50;0.68;;;;;;;;;;4976210;28;20142;-63
2022/11/07 02:55:19;;;;;;;1.90;0.80;;;;;;;;;;4992794;28;20066;-63
2022/11/07 02:57:48;;;;;;;3.55;1.35;;;;;;;;;;4960174;28;20061;-63
2022/11/07 03:00:19;;;;;;;2.65;0.80;;;;;;;;;;4960033;28;20054;-63
2022/11/07 03:02:49;;;;;;;3.75;1.27;;;;;;;;;;4992666;28;20058;-64
2022/11/07 03:05:20;;;;;;;1.55;0.90;;;;;;;;;;5031697;28;20576;-63
2022/11/07 03:07:50;;;;;;;2.33;1.00;;;;;;;;;;5031771;28;20061;-63
2022/11/07 03:10:20;;;;;;;2.50;0.85;;;;;;;;;;5031806;28;20126;-63
2022/11/07 03:12:49;;;;;;;2.50;1.15;;;;;;;;;;4982575;28;20096;-63
2022/11/07 03:15:20;;;;;;;3.65;1.20;;;;;;;;;;4982469;28;20065;-63
2022/11/07 03:17:50;;;;;;;2.28;0.88;;;;;;;;;;5031451;28;20061;-63
2022/11/07 03:20:20;;;;;;;1.77;0.75;;;;;;;;;;5011567;28;20065;-64
2022/11/07 03:22:50;;;;;;;2.90;0.85;;;;;;;;;;4972362;28;20058;-63
2022/11/07 03:25:19;;;;;;;3.53;0.70;;;;;;;;;;4951210;28;20054;-63
2022/11/07 03:27:50;;;;;;;3.33;0.90;;;;;;;;;;4949033;28;20058;-63
2022/11/07 03:30:20;;;;;;;1.95;0.68;;;;;;;;;;4972533;28;20051;-63
2022/11/07 03:32:53;;;;;;;4.88;0.90;;;;;;;;;;4940685;28;20081;-64
2022/11/07 03:35:23;;;;;;;4.03;0.82;;;;;;;;;;4972921;28;20047;-63
2022/11/07 03:37:53;;;;;;;2.30;1.00;;;;;;;;;;4972324;28;20070;-63
2022/11/07 03:40:23;;;;;;;2.30;0.90;;;;;;;;;;4972035;28;20057;-64
2022/11/07 03:42:54;;;;;;;7.53;0.75;;;;;;;;;;4972183;28;20442;-63
2022/11/07 03:45:24;;;;;;;2.05;0.88;;;;;;;;;;4972274;28;20065;-63
2022/11/07 03:47:53;;;;;;;3.47;1.00;;;;;;;;;;4939921;28;20055;-63
2022/11/07 03:50:24;;;;;;;2.22;0.88;;;;;;;;;;4933391;29;20417;-62
2022/11/07 03:52:53;;;;;;;3.20;0.68;;;;;;;;;;4932682;29;20060;-64
2022/11/07 03:55:24;;;;;;;6.07;1.00;;;;;;;;;;4901795;29;20067;-63
2022/11/07 03:57:53;;;;;;;2.78;0.98;;;;;;;;;;4907263;29;20058;-63
2022/11/07 04:00:24;;;;;;;3.63;0.80;;;;;;;;;;4917606;29;20565;-63
2022/11/07 04:02:54;;;;;;;4.18;0.90;;;;;;;;;;4960243;28;20062;-63
2022/11/07 04:05:24;;;;;;;3.95;1.35;;;;;;;;;;4991330;28;20069;-64
2022/11/07 04:07:53;;;;;;;2.25;0.93;;;;;;;;;;5000569;28;20180;-63
2022/11/07 04:10:23;;;;;;;2.33;0.90;;;;;;;;;;4978257;28;20541;-63
2022/11/07 04:18:32;;;;;;;1.73;0.70;;;;;;;;;;5024259;28;20049;-63
2022/11/07 04:21:02;;;;;;;2.10;0.80;;;;;;;;;;5030480;28;20057;-63
2022/11/07 04:23:32;;;;;;;2.85;0.80;;;;;;;;;;5030251;28;20060;-63
2022/11/07 04:28:51;;;;;;;3.08;0.93;;;;;;;;;;5046724;28;20060;-64
2022/11/07 04:31:21;;;;;;;3.35;0.95;;;;;;;;;;5050075;28;20069;-64
2022/11/07 04:33:51;;;;;;;3.80;1.02;;;;;;;;;;5049917;28;20056;-63
2022/11/07 04:36:22;;;;;;;3.25;1.02;;;;;;;;;;5067182;28;20056;-63
2022/11/07 04:38:52;;;;;;;3.78;1.25;;;;;;;;;;5090284;28;20052;-63
2022/11/07 04:41:23;;;;;;;3.05;1.00;;;;;;;;;;5090253;28;20051;-64
2022/11/07 04:43:53;;;;;;;3.30;1.30;;;;;;;;;;5090045;28;20052;-63
2022/11/07 04:46:23;;;;;;;3.40;0.82;;;;;;;;;;5055803;28;20049;-63
2022/11/07 04:48:54;;;;;;;3.33;1.13;;;;;;;;;;5090102;28;20071;-63
2022/11/07 04:51:24;;;;;;;3.42;1.30;;;;;;;;;;5089918;28;20062;-64
2022/11/07 04:53:54;;;;;;;5.90;1.55;;;;;;;;;;5069472;28;20476;-63
2022/11/07 04:56:24;;;;;;;3.92;2.45;;;;;;;;;;5094114;28;20203;-63
2022/11/07 04:59:01;;;;;;;3.78;1.40;;;;;;;;;;5110308;28;20407;-63
2022/11/07 05:01:31;;;;;;;10.25;1.60;;;;;;;;;;5110158;28;20039;-63
2022/11/07 05:04:01;;;;;;;3.13;1.17;;;;;;;;;;5110387;28;20059;-63
2022/11/07 05:06:35;;;;;;;6.30;1.38;;;;;;;;;;5110145;28;20061;-63
2022/11/07 05:09:05;;;;;;;5.55;1.33;;;;;;;;;;5110211;28;20055;-63
2022/11/07 05:11:35;;;;;;;2.65;0.98;;;;;;;;;;5109947;28;20067;-64
2022/11/07 05:14:05;;;;;;;7.45;1.50;;;;;;;;;;5110018;28;20044;-63
2022/11/07 05:16:36;;;;;;;4.68;1.67;;;;;;;;;;5110058;28;20067;-63
2022/11/07 05:19:07;;;;;;;4.75;1.40;;;;;;;;;;5109763;28;20054;-63
2022/11/07 05:21:37;;;;;;;3.53;1.20;;;;;;;;;;5058892;28;20062;-63
2022/11/07 05:24:06;;;;;;;7.47;1.27;;;;;;;;;;5059318;28;20055;-63
2022/11/07 05:26:36;;;;;;;4.95;1.23;;;;;;;;;;5059116;28;20052;-63
2022/11/07 05:29:09;;;;;;;3.60;1.10;;;;;;;;;;5048725;28;20190;-63
2022/11/07 05:31:40;;;;;;;6.18;1.40;;;;;;;;;;5080105;28;20507;-63
2022/11/07 05:34:10;;;;;;;3.30;1.17;;;;;;;;;;5056036;28;20059;-63
2022/11/07 05:36:42;;;;;;;;;;;;;;;;;;5089730;28;20408;-63
2022/11/07 05:39:12;;;;;;;4.35;1.42;;;;;;;;;;5089196;28;19920;-63
2022/11/07 05:41:42;;;;;;;3.20;1.23;;;;;;;;;;5089508;28;20602;-64
2022/11/07 05:44:13;;;;;;;8.13;1.90;;;;;;;;;;5068708;28;20059;-63
2022/11/07 05:46:42;;;;;;;10.00;1.65;;;;;;;;;;5018749;28;20048;-63
2022/11/07 05:49:14;;;;;;;6.95;1.92;;;;;;;;;;5068784;28;20548;-63
2022/11/07 05:51:44;;;;;;;6.38;2.10;;;;;;;;;;5035432;28;20158;-63
2022/11/07 05:54:14;;;;;;;8.55;2.78;;;;;;;;;;5068446;28;20063;-63
2022/11/07 05:56:44;;;;;;;10.02;2.90;;;;;;;;;;5068914;28;20052;-63
2022/11/07 05:59:15;;;;;;;7.22;2.80;;;;;;;;;;5068840;28;20067;-64
2022/11/07 06:01:45;;;;;;;7.85;2.13;;;;;;;;;;5068496;28;20059;-63
2022/11/07 06:04:20;;;;;;;6.32;2.25;;;;;;;;;;5035118;28;20451;-64
2022/11/07 06:06:50;;;;;;;5.68;2.53;;;;;;;;;;5035501;28;20059;-63
2022/11/07 06:09:19;;;;;;;5.82;2.38;;;;;;;;;;5045264;28;20063;-63
2022/11/07 06:11:49;;;;;;;6.22;2.13;;;;;;;;;;5071990;28;20056;-63
2022/11/07 06:14:19;;;;;;;9.63;2.28;;;;;;;;;;5088746;28;20071;-63
2022/11/07 06:16:49;;;;;;;6.70;2.45;;;;;;;;;;5090452;28;20148;-63
2022/11/07 06:19:19;;;;;;;7.55;2.35;;;;;;;;;;5092724;28;20086;-63
2022/11/07 06:21:49;;;;;;;9.18;2.58;;;;;;;;;;5081976;28;20607;-63
2022/11/07 06:24:19;;;;;;;6.28;2.08;;;;;;;;;;5092922;28;20064;-64
2022/11/07 06:26:49;;;;;;;7.05;2.28;;;;;;;;;;5092713;28;20048;-64
2022/11/07 06:29:19;;;;;;;6.95;2.20;;;;;;;;;;5035724;28;20049;-64
2022/11/07 06:31:49;;;;;;;5.65;2.20;;;;;;;;;;5052379;28;20053;-64
2022/11/07 06:34:19;;;;;;;5.00;2.10;;;;;;;;;;5052213;28;20060;-64
2022/11/07 06:36:55;;;;;;;6.22;1.92;;;;;;;;;;5019225;28;20056;-64
2022/11/07 06:39:31;;;;;;;4.68;1.90;;;;;;;;;;5040956;28;20452;-64
2022/11/07 06:42:02;;;;;;;7.07;2.65;;;;;;;;;;5032771;28;20521;-65
2022/11/07 06:44:31;;;;;;;6.68;2.15;;;;;;;;;;5015646;28;20058;-64
2022/11/07 06:47:02;;;;;;;5.38;1.95;;;;;;;;;;4982930;28;20054;-65
2022/11/07 06:49:31;;;;;;;8.27;1.92;;;;;;;;;;4999250;28;20412;-65
2022/11/07 06:52:01;;;;;;;7.65;2.60;;;;;;;;;;5031981;28;20056;-64
2022/11/07 06:54:32;;;;;;;5.57;1.85;;;;;;;;;;4982915;28;20440;-64
2022/11/07 06:57:01;;;;;;;6.75;2.17;;;;;;;;;;4998946;28;20060;-64
2022/11/07 06:59:31;;;;;;;5.95;2.20;;;;;;;;;;5052764;28;20063;-64
2022/11/07 07:02:01;;;;;;;7.68;2.42;;;;;;;;;;5071853;28;20067;-64
2022/11/07 07:04:33;;;;;;;4.30;1.88;;;;;;;;;;5071829;28;20040;-64
2022/11/07 07:07:03;;;;;;;8.95;2.25;;;;;;;;;;5093593;28;20755;-64
2022/11/07 07:09:33;;;;;;;6.43;2.35;;;;;;;;;;5112338;28;20052;-64
2022/11/07 07:12:03;;;;;;;6.18;2.13;;;;;;;;;;5112392;28;20142;-65
2022/11/07 07:14:33;;;;;;;6.80;1.98;;;;;;;;;;5112380;28;20058;-64
2022/11/07 07:17:03;;;;;;;4.22;1.83;;;;;;;;;;5112111;28;20490;-64
2022/11/07 07:19:33;;;;;;;4.95;2.00;;;;;;;;;;5112033;28;20372;-64
2022/11/07 07:22:03;;;;;;;5.07;2.10;;;;;;;;;;5112081;28;20052;-64
2022/11/07 07:24:33;;;;;;;4.97;1.75;;;;;;;;;;5112286;28;20146;-64
2022/11/07 07:27:03;;;;;;;9.40;2.42;;;;;;;;;;5077812;28;20190;-64
2022/11/07 07:29:33;;;;;;;4.43;1.77;;;;;;;;;;5069871;28;20432;-64
2022/11/07 07:32:03;;;;;;;5.45;1.85;;;;;;;;;;5021389;28;20053;-64
2022/11/07 07:34:33;;;;;;;6.10;2.15;;;;;;;;;;5044896;28;20149;-64
2022/11/07 07:37:03;;;;;;;5.75;1.83;;;;;;;;;;5018846;28;20068;-65
2022/11/07 07:39:33;;;;;;;6.55;1.77;;;;;;;;;;5051337;28;20067;-65
2022/11/07 07:42:03;;;;;;;4.35;1.77;;;;;;;;;;5001409;28;20065;-64
2022/11/07 07:44:34;;;;;;;4.40;1.63;;;;;;;;;;5017858;28;20056;-64
2022/11/07 07:47:05;;;;;;;10.43;1.98;;;;;;;;;;5017836;28;20057;-65
2022/11/07 07:49:39;;;;;;;3.92;1.83;;;;;;;;;;5051126;28;20060;-65
2022/11/07 07:52:09;;;;;;;6.65;1.80;;;;;;;;;;5050778;28;20053;-64
2022/11/07 07:54:39;;;;;;;4.88;1.83;;;;;;;;;;5017609;28;20063;-64
2022/11/07 07:57:09;;;;;;;4.45;2.00;;;;;;;;;;5050920;28;20642;-65
2022/11/07 07:59:41;;;;;;;4.07;1.55;;;;;;;;;;5050783;28;20056;-64
2022/11/07 08:02:11;;;;;;;5.55;1.75;;;;;;;;;;5017999;28;20530;-65
2022/11/07 08:04:42;;;;;;;6.57;1.85;;;;;;;;;;5017681;28;20064;-65
2022/11/07 08:07:12;;;;;;;7.53;1.70;;;;;;;;;;5082449;28;20059;-64
2022/11/07 08:09:42;;;;;;;4.55;1.95;;;;;;;;;;5113516;28;20043;-65
2022/11/07 08:12:13;;;;;;;4.25;2.22;;;;;;;;;;5113501;28;20480;-65
2022/11/07 08:14:43;;;;;;;5.65;1.80;;;;;;;;;;5094711;28;20434;-64
2022/11/07 08:17:13;;;;;;;6.00;1.65;;;;;;;;;;5094505;28;20055;-65
2022/11/07 08:19:43;;;;;;;5.97;2.00;;;;;;;;;;5094251;28;20415;-65
2022/11/07 08:22:13;;;;;;;6.35;2.00;;;;;;;;;;5080890;27;20058;-64
2022/11/07 08:24:42;;;;;;;6.85;2.05;;;;;;;;;;5098036;27;20082;-65
2022/11/07 08:27:12;;;;;;;4.50;1.60;;;;;;;;;;5097462;27;20518;-64
2022/11/07 08:29:42;;;;;;;5.72;1.77;;;;;;;;;;5115826;27;20506;-64
2022/11/07 08:32:12;;;;;;;6.07;1.45;;;;;;;;;;5133520;27;20494;-64
2022/11/07 08:34:42;;;;;;;7.28;2.03;;;;;;;;;;5115706;27;20046;-65
2022/11/07 08:37:12;;;;;;;4.30;1.55;;;;;;;;;;5133548;27;20043;-64
2022/11/07 08:39:42;;;;;;;4.80;1.80;;;;;;;;;;5133395;27;20039;-64
2022/11/07 08:42:12;;;;;;;5.38;2.00;;;;;;;;;;5097647;27;20487;-66
2022/11/07 08:44:42;;;;;;;5.03;1.88;;;;;;;;;;5133710;27;20043;-64
2022/11/07 08:47:12;;;;;;;9.88;1.85;;;;;;;;;;5133558;27;20058;-64
2022/11/07 08:49:45;;;;;;;4.55;2.28;;;;;;;;;;5133462;27;20398;-65
2022/11/07 08:52:15;;;;;;;4.05;1.80;;;;;;;;;;5076139;28;20161;-65
2022/11/07 08:54:46;;;;;;;4.38;1.90;;;;;;;;;;5110375;28;20549;-64
2022/11/07 08:57:17;;;;;;;6.68;2.33;;;;;;;;;;5076103;28;20056;-64
2022/11/07 08:59:47;;;;;;;5.03;1.60;;;;;;;;;;5110164;28;20054;-65
2022/11/07 09:02:17;;;;;;;8.35;1.98;;;;;;;;;;5052518;28;20059;-64
2022/11/07 09:05:07;;;;;;;6.82;1.85;;;;;;;;;;5069488;28;20056;-66
2022/11/07 09:07:39;;;;;;;5.55;1.73;;;;;;;;;;5069338;28;20053;-65
2022/11/07 09:10:10;;;;;;;6.32;1.80;;;;;;;;;;5035962;28;20051;-64
2022/11/07 09:12:48;;;;;;;5.13;1.98;;;;;;;;;;5069182;28;20057;-64
2022/11/07 09:15:19;;;;;;;4.55;1.52;;;;;;;;;;5069388;28;20415;-64
2022/11/07 09:17:49;;;;;;;3.53;1.15;;;;;;;;;;5052898;28;20052;-64
2022/11/07 09:20:20;;;;;;;4.80;1.30;;;;;;;;;;5035899;28;20416;-65
2022/11/07 09:22:56;;;;;;;6.15;1.45;;;;;;;;;;5019091;28;20048;-64
2022/11/07 09:25:26;;;;;;;3.40;1.40;;;;;;;;;;5069112;28;20587;-64
2022/11/07 09:28:01;;;;;;;3.60;1.38;;;;;;;;;;5069103;28;20496;-64
2022/11/07 09:30:32;;;;;;;5.95;1.55;;;;;;;;;;5084421;28;20528;-64
2022/11/07 09:33:02;;;;;;;4.05;1.50;;;;;;;;;;5072664;28;20056;-64
2022/11/07 09:35:32;;;;;;;4.25;1.48;;;;;;;;;;5089393;28;20510;-64
2022/11/07 09:38:02;;;;;;;3.88;1.40;;;;;;;;;;5089287;28;20059;-64
2022/11/07 09:41:03;;;;;;;4.28;1.45;;;;;;;;;;5070244;28;20487;-64
2022/11/07 09:43:42;;;;;;;8.27;2.20;;;;;;;;;;5132735;27;20027;-64
2022/11/07 09:46:21;;;;;;;4.15;1.70;;;;;;;;;;5096334;28;20051;-65
2022/11/07 09:48:59;;;;;;;7.75;2.03;;;;;;;;;;5132257;27;20039;-64
2022/11/07 09:51:32;;;;;;;3.90;1.73;;;;;;;;;;5095397;28;20047;-63
2022/11/07 09:54:24;;;;;;;6.07;1.90;;;;;;;;;;5132620;28;20043;-64
2022/11/07 09:56:57;;;;;;;5.93;2.30;;;;;;;;;;5132488;28;20061;-64
2022/11/07 09:59:40;;;;;;;4.20;1.65;;;;;;;;;;5132312;28;20051;-64
2022/11/07 10:02:16;;;;;;;5.07;1.70;;;;;;;;;;5132113;28;20048;-64
2022/11/07 10:04:54;;;;;;;4.18;1.70;;;;;;;;;;5078865;28;20069;-63
2022/11/07 10:07:39;;;;;;;3.95;1.30;;;;;;;;;;5079343;28;20051;-64
2022/11/07 10:10:25;;;;;;;4.18;1.55;;;;;;;;;;5114019;28;20039;-63
2022/11/07 10:13:20;;;;;;;12.88;5.20;;;;;;;;;;5132222;28;20039;-63
2022/11/07 10:16:00;;;;;;;7.38;2.55;;;;;;;;;;5132251;28;20367;-63
2022/11/07 10:18:39;;;;;;;2.85;1.00;;;;;;;;;;5088488;28;20060;-62
2022/11/07 10:21:23;;;;;;;;;;;;;;;;;;5089187;28;20531;-63
2022/11/07 10:24:33;;;;;;;1.70;0.68;;;;;;;;;;5051371;28;19920;-62
2022/11/07 10:27:09;;;;;;;1.92;1.33;;;;;;;;;;5068321;28;20061;-62
2022/11/07 10:29:47;;;;;;;1.55;1.00;;;;;;;;;;5068436;28;20060;-62
2022/11/07 10:32:26;;;;;;;2.25;1.10;;;;;;;;;;5068608;28;20049;-63
2022/11/07 10:35:21;;;;;;;2.22;0.90;;;;;;;;;;5051690;28;20065;-63
2022/11/07 10:37:57;;;;;;;1.13;0.65;;;;;;;;;;5035084;28;20067;-63
2022/11/07 10:40:37;;;;;;;1.67;1.05;;;;;;;;;;5068120;28;20049;-63
2022/11/07 10:43:18;;;;;;;1.85;0.80;;;;;;;;;;5068287;28;20415;-63
2022/11/07 10:45:49;;;;;;;4.57;0.80;;;;;;;;;;5068329;28;20079;-63
2022/11/07 10:48:20;;;;;;;2.67;0.98;;;;;;;;;;5068188;28;20436;-63
2022/11/07 10:50:54;;;;;;;3.92;1.42;;;;;;;;;;5068340;28;20060;-63
2022/11/07 10:53:26;;;;;;;1.50;0.82;;;;;;;;;;5068214;28;20051;-63
2022/11/07 10:55:58;;;;;;;5.18;1.75;;;;;;;;;;5068195;28;20060;-61
2022/11/07 10:58:33;;;;;;;6.03;2.72;;;;;;;;;;5008273;28;20056;-62
2022/11/07 11:01:07;;;;;;;2.75;0.88;;;;;;;;;;5012537;28;20065;-61
2022/11/07 11:03:46;;;;;;;2.95;0.98;;;;;;;;;;5030575;28;20049;-63
2022/11/07 11:06:19;;;;;;;2.60;0.90;;;;;;;;;;4999719;28;20053;-61
2022/11/07 11:08:52;;;;;;;2.30;0.80;;;;;;;;;;5031587;28;20050;-61
2022/11/07 11:11:32;;;;;;;2.17;0.90;;;;;;;;;;5015390;28;20049;-62
2022/11/07 11:14:09;;;;;;;11.82;3.13;;;;;;;;;;5031542;28;20497;-61
2022/11/07 11:16:41;;;;;;;3.00;1.10;;;;;;;;;;5031672;28;20058;-61
2022/11/07 11:19:23;;;;;;;;;;;;;;;;;;5070078;28;20053;-61
2022/11/07 11:21:57;;;;;;;7.47;3.08;;;;;;;;;;5021360;28;19927;-61
2022/11/07 11:24:30;;;;;;;3.40;1.00;;;;;;;;;;5021584;28;20061;-63
2022/11/07 11:27:18;;;;;;;1.75;1.52;;;;;;;;;;5054820;28;20063;-62
2022/11/07 11:30:11;;;;;;;2.95;1.20;;;;;;;;;;5051233;28;20052;-61
2022/11/07 11:33:02;;;;;;;2.05;1.02;;;;;;;;;;5060954;28;20041;-62
2022/11/07 11:35:46;;;;;;;1.73;0.80;;;;;;;;;;5078380;27;20399;-63
2022/11/07 11:38:25;;;;;;;2.85;0.60;;;;;;;;;;5074778;27;20055;-62
2022/11/07 11:41:01;;;;;;;1.65;0.70;;;;;;;;;;5124668;27;20039;-63
2022/11/07 11:44:11;;;;;;;0.93;0.63;;;;;;;;;;5119218;27;20399;-62
2022/11/07 11:47:12;;;;;;;0.85;0.60;;;;;;;;;;5050793;28;20056;-62
2022/11/07 11:49:58;;;;;;;2.53;1.20;;;;;;;;;;5050907;28;20060;-62
2022/11/07 11:52:33;;;;;;;1.73;0.60;;;;;;;;;;5050905;28;20535;-63
2022/11/07 11:55:18;;;;;;;1.55;0.93;;;;;;;;;;5051120;28;20052;-63
2022/11/07 11:57:58;;;;;;;3.95;1.98;;;;;;;;;;5050705;28;20057;-62
2022/11/07 12:00:35;;;;;;;4.72;1.25;;;;;;;;;;5034057;28;20054;-62
2022/11/07 12:03:24;;;;;;;2.30;0.90;;;;;;;;;;5000970;28;20052;-62
2022/11/07 12:06:07;;;;;;;1.75;0.88;;;;;;;;;;5050382;28;20060;-62
2022/11/07 12:08:40;;;;;;;3.78;0.88;;;;;;;;;;5044511;28;20456;-63
2022/11/07 12:11:21;;;;;;;1.20;0.50;;;;;;;;;;5039402;28;20056;-62
2022/11/07 12:14:06;;;;;;;2.10;0.70;;;;;;;;;;5040845;28;20044;-62
2022/11/07 12:16:40;;;;;;;1.13;0.63;;;;;;;;;;4996366;28;20054;-63
2022/11/07 12:19:41;;;;;;;1.52;0.73;;;;;;;;;;5013816;28;20057;-62
2022/11/07 12:22:48;;;;;;;1.50;0.70;;;;;;;;;;4977760;28;20114;-63
2022/11/07 12:25:42;;;;;;;2.10;0.63;;;;;;;;;;5036189;28;20057;-63
2022/11/07 12:28:49;;;;;;;2.28;0.88;;;;;;;;;;4960834;28;20062;-63
2022/11/07 12:31:49;;;;;;;2.25;0.70;;;;;;;;;;4971351;28;20101;-63
2022/11/07 12:34:28;;;;;;;1.55;0.63;;;;;;;;;;4971158;28;20058;-63
2022/11/07 12:37:17;;;;;;;1.58;0.80;;;;;;;;;;4979295;28;20434;-63
2022/11/07 12:40:09;;;;;;;2.00;1.10;;;;;;;;;;4970910;28;20051;-63
2022/11/07 12:42:48;;;;;;;2.95;0.95;;;;;;;;;;4971293;28;20122;-63
2022/11/07 12:45:23;;;;;;;2.17;1.13;;;;;;;;;;4923475;28;20458;-63
2022/11/07 12:48:17;;;;;;;1.92;0.90;;;;;;;;;;4971278;28;20499;-62
2022/11/07 12:50:59;;;;;;;4.88;1.17;;;;;;;;;;4922004;28;20415;-63
2022/11/07 12:54:19;;;;;;;4.93;1.75;;;;;;;;;;4970284;28;20063;-63
2022/11/07 12:56:51;;;;;;;1.10;0.60;;;;;;;;;;4916176;29;20054;-62
2022/11/07 12:59:38;;;;;;;13.30;5.18;;;;;;;;;;5068901;28;20420;-60
2022/11/07 13:02:24;;;;;;;1.75;0.90;;;;;;;;;;5068914;28;20045;-61
2022/11/07 13:05:17;;;;;;;4.65;1.60;;;;;;;;;;5100153;28;20056;-60
2022/11/07 13:08:09;;;;;;;2.85;1.20;;;;;;;;;;5068683;28;20055;-61
2022/11/07 13:11:04;;;;;;;1.73;0.73;;;;;;;;;;5049834;28;20060;-62
2022/11/07 13:13:59;;;;;;;2.22;1.05;;;;;;;;;;5068390;28;20036;-61
2022/11/07 13:16:33;;;;;;;2.53;1.20;;;;;;;;;;5068659;28;20044;-61
2022/11/07 13:19:30;;;;;;;3.08;1.30;;;;;;;;;;5065789;28;20057;-62
2022/11/07 13:22:16;;;;;;;2.75;0.77;;;;;;;;;;5065606;28;20045;-61
2022/11/07 13:25:10;;;;;;;4.10;0.80;;;;;;;;;;5066017;28;20568;-60
2022/11/07 13:28:01;;;;;;;1.58;0.57;;;;;;;;;;5065838;28;20045;-61
2022/11/07 13:30:39;;;;;;;1.58;0.93;;;;;;;;;;5048973;28;20642;-61
2022/11/07 13:33:29;;;;;;;1.52;0.88;;;;;;;;;;5065662;28;20044;-62
2022/11/07 13:36:14;;;;;;;2.25;0.70;;;;;;;;;;5045492;28;20052;-61
2022/11/07 13:38:51;;;;;;;1.98;0.95;;;;;;;;;;5025482;28;20506;-62
2022/11/07 13:41:23;;;;;;;4.40;1.88;;;;;;;;;;5025735;28;20427;-62
2022/11/07 13:43:58;;;;;;;10.02;2.70;;;;;;;;;;5025657;28;20061;-61
2022/11/07 13:46:36;;;;;;;8.98;1.30;;;;;;;;;;5025924;28;20093;-61
2022/11/07 13:49:29;;;;;;;2.13;1.00;;;;;;;;;;5025260;28;20041;-62
2022/11/07 13:52:09;;;;;;;3.83;0.60;;;;;;;;;;5025487;28;20049;-62
2022/11/07 13:54:50;;;;;;;1.90;0.90;;;;;;;;;;5025569;28;20056;-63
2022/11/07 13:57:35;;;;;;;3.75;1.88;;;;;;;;;;5024828;28;20054;-61
2022/11/07 14:00:13;;;;;;;1.08;0.68;;;;;;;;;;5025618;28;20064;-62
2022/11/07 14:02:54;;;;;;;0.80;0.40;;;;;;;;;;5025680;28;20133;-62
2022/11/07 14:05:33;;;;;;;2.17;0.50;;;;;;;;;;5025198;28;20101;-65
2022/11/07 14:08:12;;;;;;;1.17;0.52;;;;;;;;;;5025433;28;20054;-63
2022/11/07 14:10:46;;;;;;;2.55;0.70;;;;;;;;;;5022526;28;20053;-62
2022/11/07 14:13:36;;;;;;;1.40;0.63;;;;;;;;;;4999295;28;20576;-62
2022/11/07 14:16:29;;;;;;;0.75;0.57;;;;;;;;;;5041058;28;20068;-62
2022/11/07 14:19:05;;;;;;;2.25;0.60;;;;;;;;;;5054110;28;20052;-62
2022/11/07 14:21:37;;;;;;;1.55;0.60;;;;;;;;;;5053952;28;20060;-62
2022/11/07 14:24:31;;;;;;;3.17;0.57;;;;;;;;;;5035159;28;20524;-61
2022/11/07 14:27:07;;;;;;;1.75;0.73;;;;;;;;;;5054138;28;20389;-62
2022/11/07 14:29:38;;;;;;;2.33;0.82;;;;;;;;;;5018841;28;20060;-62
2022/11/07 14:32:15;;;;;;;1.05;0.60;;;;;;;;;;5053830;28;20404;-63
2022/11/07 14:34:47;;;;;;;1.30;0.57;;;;;;;;;;5035085;28;20056;-63
2022/11/07 14:37:24;;;;;;;4.43;1.83;;;;;;;;;;5053915;28;20045;-63
2022/11/07 14:39:54;;;;;;;2.45;0.68;;;;;;;;;;5053967;28;20041;-63
2022/11/07 14:42:25;;;;;;;3.15;0.50;;;;;;;;;;5053786;28;20048;-63
2022/11/07 14:44:56;;;;;;;0.90;0.52;;;;;;;;;;5053527;28;20433;-63
2022/11/07 14:47:33;;;;;;;2.22;0.65;;;;;;;;;;5050860;28;20053;-63
2022/11/07 14:50:04;;;;;;;2.15;0.50;;;;;;;;;;5051348;28;20057;-63
2022/11/07 14:52:52;;;;;;;0.85;0.50;;;;;;;;;;5050903;28;20527;-64
2022/11/07 14:55:37;;;;;;;0.70;0.45;;;;;;;;;;5051250;28;20049;-63
2022/11/07 14:58:11;;;;;;;1.25;0.65;;;;;;;;;;5050291;28;20053;-64
2022/11/07 15:01:10;;;;;;;2.22;0.50;;;;;;;;;;5034937;28;20049;-63
2022/11/07 15:03:56;;;;;;;0.40;0.30;;;;;;;;;;5050893;28;20037;-64
2022/11/07 15:06:40;;;;;;;1.00;0.50;;;;;;;;;;5050727;28;20049;-63
2022/11/07 15:09:11;;;;;;;0.65;0.40;;;;;;;;;;5034422;28;20049;-63
2022/11/07 15:11:56;;;;;;;1.80;0.60;;;;;;;;;;5010727;28;20050;-64
2022/11/07 15:14:35;;;;;;;1.20;0.63;;;;;;;;;;5010473;28;20421;-63
2022/11/07 15:17:04;;;;;;;;;;;;;;;;;;4978896;28;20054;-64
2022/11/07 15:19:35;;;;;;;0.98;0.45;;;;;;;;;;5010124;28;19928;-64
2022/11/07 15:22:05;;;;;;;1.50;1.02;;;;;;;;;;5009902;28;20072;-63
2022/11/07 15:24:42;;;;;;;1.50;0.60;;;;;;;;;;5000586;28;20061;-63
2022/11/07 15:27:19;;;;;;;0.68;0.47;;;;;;;;;;5030467;28;20064;-63
2022/11/07 15:29:52;;;;;;;0.88;0.70;;;;;;;;;;5030221;28;20058;-64
2022/11/07 15:32:25;;;;;;;0.90;0.50;;;;;;;;;;5030244;28;20057;-64
2022/11/07 15:34:56;;;;;;;2.88;0.50;;;;;;;;;;5030261;28;20045;-64
2022/11/07 15:38:00;;;;;;;1.33;0.40;;;;;;;;;;5030243;28;20049;-63
2022/11/07 15:40:30;;;;;;;2.70;0.43;;;;;;;;;;5030193;28;20041;-64
2022/11/07 15:43:00;;;;;;;0.50;0.30;;;;;;;;;;5029978;28;20076;-66